createdAt,value
2018-03-21T00:00:21.698Z,93.10
2018-03-21T00:01:24.256Z,93.10
2018-03-21T00:02:26.777Z,93.20
2018-03-21T00:03:29.315Z,93.40
2018-03-21T00:04:31.848Z,93.50
2018-03-21T00:05:35.173Z,93.70
2018-03-21T00:06:37.738Z,93.70
2018-03-21T00:07:40.264Z,93.70
2018-03-21T00:08:43.552Z,93.60
2018-03-21T00:09:46.842Z,93.90
2018-03-21T00:10:49.371Z,93.90
2018-03-21T00:11:51.933Z,94.10
2018-03-21T00:12:54.468Z,94.30
2018-03-21T00:13:57.033Z,94.30
2018-03-21T00:14:59.547Z,94.30
2018-03-21T00:16:02.074Z,94.30
2018-03-21T00:17:04.607Z,94.10
2018-03-21T00:18:07.129Z,93.90
2018-03-21T00:19:09.697Z,93.80
2018-03-21T00:20:12.230Z,93.80
2018-03-21T00:21:14.758Z,93.70
2018-03-21T00:22:18.048Z,93.60
2018-03-21T00:23:21.367Z,93.60
2018-03-21T00:24:23.891Z,93.60
2018-03-21T00:25:27.215Z,93.90
2018-03-21T00:26:29.754Z,93.90
2018-03-21T00:27:32.276Z,94.00
2018-03-21T00:28:34.831Z,94.10
2018-03-21T00:29:37.362Z,94.00
2018-03-21T00:30:39.881Z,93.90
2018-03-21T00:31:42.401Z,93.80
2018-03-21T00:32:44.970Z,93.80
2018-03-21T00:33:47.502Z,93.90
2018-03-21T00:34:50.809Z,93.90
2018-03-21T00:35:53.441Z,93.90
2018-03-21T00:36:55.970Z,93.90
2018-03-21T00:37:58.533Z,93.80
2018-03-21T00:39:01.066Z,93.80
2018-03-21T00:40:03.600Z,93.90
2018-03-21T00:41:06.117Z,94.00
2018-03-21T00:42:08.636Z,94.00
2018-03-21T00:43:11.208Z,94.10
2018-03-21T00:44:13.738Z,94.20
2018-03-21T00:45:16.269Z,94.40
2018-03-21T00:46:18.794Z,94.50
2018-03-21T00:47:21.318Z,94.50
2018-03-21T00:48:23.880Z,94.30
2018-03-21T00:49:26.397Z,94.20
2018-03-21T00:50:28.940Z,94.10
2018-03-21T00:51:31.465Z,94.20
2018-03-21T00:52:33.996Z,93.80
2018-03-21T00:53:36.555Z,93.80
2018-03-21T00:54:39.082Z,94.00
2018-03-21T00:55:41.617Z,93.90
2018-03-21T00:56:44.901Z,93.70
2018-03-21T00:57:48.189Z,93.60
2018-03-21T00:58:50.747Z,93.60
2018-03-21T00:59:54.038Z,93.70
2018-03-21T01:00:56.624Z,93.70
2018-03-21T01:01:59.174Z,93.80
2018-03-21T01:03:01.692Z,93.90
2018-03-21T01:04:04.204Z,93.80
2018-03-21T01:05:06.734Z,93.80
2018-03-21T01:06:09.251Z,93.80
2018-03-21T01:07:11.801Z,93.70
2018-03-21T01:08:15.086Z,94.00
2018-03-21T01:09:17.618Z,94.00
2018-03-21T01:10:20.150Z,94.00
2018-03-21T01:11:22.681Z,94.10
2018-03-21T01:12:26.049Z,94.00
2018-03-21T01:13:28.565Z,94.00
2018-03-21T01:14:31.096Z,94.20
2018-03-21T01:15:33.666Z,93.90
2018-03-21T01:16:36.948Z,94.10
2018-03-21T01:17:40.241Z,94.20
2018-03-21T01:18:42.805Z,94.20
2018-03-21T01:19:45.369Z,94.10
2018-03-21T01:20:48.670Z,94.20
2018-03-21T01:21:51.195Z,94.20
2018-03-21T01:22:54.483Z,94.40
2018-03-21T01:23:57.785Z,94.20
2018-03-21T01:25:00.359Z,94.20
2018-03-21T01:26:02.903Z,94.20
2018-03-21T01:27:06.206Z,94.30
2018-03-21T01:28:08.773Z,94.30
2018-03-21T01:29:11.302Z,94.20
2018-03-21T01:30:13.831Z,94.10
2018-03-21T01:31:16.381Z,94.20
2018-03-21T01:32:18.899Z,94.20
2018-03-21T01:33:21.429Z,94.20
2018-03-21T01:34:23.946Z,94.10
2018-03-21T01:35:27.250Z,94.10
2018-03-21T01:36:29.854Z,94.10
2018-03-21T01:37:32.410Z,94.10
2018-03-21T01:38:34.924Z,93.90
2018-03-21T01:39:38.269Z,94.00
2018-03-21T01:40:40.787Z,93.90
2018-03-21T01:41:43.349Z,94.00
2018-03-21T01:42:46.672Z,94.00
2018-03-21T01:43:49.210Z,94.00
2018-03-21T01:44:52.506Z,94.30
2018-03-21T01:45:55.038Z,94.30
2018-03-21T01:46:57.573Z,94.30
2018-03-21T01:48:00.220Z,94.30
2018-03-21T01:49:02.781Z,94.30
2018-03-21T01:50:05.373Z,94.10
2018-03-21T01:51:07.901Z,94.30
2018-03-21T01:52:10.449Z,94.40
2018-03-21T01:53:13.751Z,94.40
2018-03-21T01:54:16.329Z,94.40
2018-03-21T01:55:18.857Z,94.20
2018-03-21T01:56:21.391Z,94.10
2018-03-21T01:57:23.929Z,94.30
2018-03-21T01:58:26.458Z,94.20
2018-03-21T01:59:29.017Z,94.30
2018-03-21T02:00:31.590Z,94.10
2018-03-21T02:01:34.126Z,94.00
2018-03-21T02:02:36.665Z,94.20
2018-03-21T02:03:39.188Z,94.20
2018-03-21T02:04:41.753Z,94.30
2018-03-21T02:05:44.290Z,94.20
2018-03-21T02:06:46.817Z,94.20
2018-03-21T02:07:49.388Z,94.20
2018-03-21T02:08:51.953Z,94.30
2018-03-21T02:09:54.489Z,94.40
2018-03-21T02:10:57.045Z,94.40
2018-03-21T02:11:59.570Z,94.50
2018-03-21T02:13:02.097Z,94.60
2018-03-21T02:14:05.429Z,94.50
2018-03-21T02:15:07.966Z,94.50
2018-03-21T02:16:10.750Z,94.30
2018-03-21T02:17:13.281Z,94.30
2018-03-21T02:18:16.594Z,94.30
2018-03-21T02:19:19.162Z,94.30
2018-03-21T02:20:21.690Z,94.20
2018-03-21T02:21:24.224Z,94.30
2018-03-21T02:22:26.756Z,94.20
2018-03-21T02:23:29.276Z,94.10
2018-03-21T02:24:31.839Z,93.90
2018-03-21T02:25:34.364Z,93.90
2018-03-21T02:26:36.927Z,93.90
2018-03-21T02:27:39.465Z,93.80
2018-03-21T02:28:42.765Z,94.00
2018-03-21T02:29:46.078Z,94.20
2018-03-21T02:30:48.596Z,94.20
2018-03-21T02:31:51.929Z,94.60
2018-03-21T02:32:54.465Z,94.30
2018-03-21T02:33:56.999Z,94.40
2018-03-21T02:34:59.562Z,94.30
2018-03-21T02:36:02.138Z,94.40
2018-03-21T02:37:04.706Z,94.40
2018-03-21T02:38:07.242Z,94.80
2018-03-21T02:39:09.785Z,94.50
2018-03-21T02:40:12.344Z,94.30
2018-03-21T02:41:14.863Z,94.20
2018-03-21T02:42:17.426Z,94.20
2018-03-21T02:43:19.953Z,94.10
2018-03-21T02:44:22.483Z,94.40
2018-03-21T02:45:25.770Z,94.30
2018-03-21T02:46:29.054Z,94.50
2018-03-21T02:47:32.379Z,94.50
2018-03-21T02:48:34.936Z,94.50
2018-03-21T02:49:37.469Z,94.40
2018-03-21T02:51:49.740Z,94.20
2018-03-21T02:52:52.312Z,94.20
2018-03-21T02:53:54.859Z,94.10
2018-03-21T02:54:57.394Z,94.30
2018-03-21T02:55:59.935Z,94.30
2018-03-21T02:57:03.226Z,94.30
2018-03-21T02:58:06.546Z,94.30
2018-03-21T02:59:09.070Z,94.30
2018-03-21T03:00:12.398Z,94.40
2018-03-21T03:01:14.919Z,94.30
2018-03-21T03:02:18.502Z,94.50
2018-03-21T03:03:21.798Z,94.40
2018-03-21T03:04:25.097Z,94.50
2018-03-21T03:05:27.665Z,94.50
2018-03-21T03:06:30.198Z,94.50
2018-03-21T03:07:32.732Z,94.30
2018-03-21T03:08:35.303Z,95.00
2018-03-21T03:09:37.838Z,94.60
2018-03-21T03:10:40.359Z,94.70
2018-03-21T03:11:42.882Z,94.60
2018-03-21T03:12:45.426Z,94.60
2018-03-21T03:13:48.740Z,94.70
2018-03-21T03:14:51.260Z,94.70
2018-03-21T03:15:54.572Z,94.80
2018-03-21T03:16:57.142Z,94.80
2018-03-21T03:17:59.702Z,94.80
2018-03-21T03:19:02.234Z,94.90
2018-03-21T03:20:05.518Z,94.80
2018-03-21T03:21:08.797Z,94.60
2018-03-21T03:22:11.373Z,94.80
2018-03-21T03:23:14.663Z,94.80
2018-03-21T03:24:17.940Z,94.80
2018-03-21T03:25:21.232Z,94.80
2018-03-21T03:26:24.527Z,94.60
2018-03-21T03:27:27.079Z,94.60
2018-03-21T03:28:30.373Z,94.70
2018-03-21T03:29:32.900Z,94.70
2018-03-21T03:30:35.455Z,94.80
2018-03-21T03:31:37.992Z,94.90
2018-03-21T03:32:41.322Z,95.00
2018-03-21T03:33:43.848Z,94.90
2018-03-21T03:34:46.365Z,94.90
2018-03-21T03:35:48.884Z,94.80
2018-03-21T03:36:51.451Z,94.90
2018-03-21T03:37:54.006Z,94.80
2018-03-21T03:40:05.450Z,94.80
2018-03-21T03:41:08.734Z,95.60
2018-03-21T03:42:12.031Z,95.10
2018-03-21T03:43:14.589Z,95.10
2018-03-21T03:44:17.874Z,95.00
2018-03-21T03:45:21.158Z,94.90
2018-03-21T03:46:24.440Z,94.90
2018-03-21T03:47:27.722Z,94.80
2018-03-21T03:48:31.041Z,94.80
2018-03-21T03:49:33.566Z,94.80
2018-03-21T03:50:36.853Z,95.00
2018-03-21T03:51:40.146Z,95.00
2018-03-21T03:52:43.428Z,94.60
2018-03-21T03:53:46.761Z,94.50
2018-03-21T03:54:49.293Z,94.50
2018-03-21T03:55:51.827Z,94.50
2018-03-21T03:56:54.348Z,94.50
2018-03-21T03:57:56.878Z,94.80
2018-03-21T03:59:00.245Z,94.60
2018-03-21T04:00:03.553Z,94.70
2018-03-21T04:01:06.856Z,94.70
2018-03-21T04:02:09.377Z,94.70
2018-03-21T04:03:11.909Z,94.70
2018-03-21T04:05:23.287Z,94.90
2018-03-21T04:06:25.814Z,95.00
2018-03-21T04:07:29.109Z,95.00
2018-03-21T04:08:31.632Z,95.00
2018-03-21T04:09:34.185Z,94.90
2018-03-21T04:10:36.931Z,94.90
2018-03-21T04:11:39.453Z,94.90
2018-03-21T04:12:42.740Z,94.70
2018-03-21T04:13:46.030Z,94.60
2018-03-21T04:14:49.330Z,94.60
2018-03-21T04:15:51.887Z,94.60
2018-03-21T04:16:54.406Z,94.80
2018-03-21T04:17:56.954Z,94.80
2018-03-21T04:18:59.478Z,94.90
2018-03-21T04:20:02.770Z,94.90
2018-03-21T04:21:06.096Z,94.80
2018-03-21T04:22:08.623Z,94.70
2018-03-21T04:23:11.152Z,94.70
2018-03-21T04:24:13.673Z,94.60
2018-03-21T04:25:16.200Z,94.70
2018-03-21T04:26:18.757Z,94.60
2018-03-21T04:27:21.325Z,94.60
2018-03-21T04:28:23.869Z,94.60
2018-03-21T04:29:27.161Z,94.50
2018-03-21T04:30:29.676Z,94.50
2018-03-21T04:31:32.188Z,94.50
2018-03-21T04:32:34.754Z,94.60
2018-03-21T04:33:37.281Z,94.70
2018-03-21T04:34:39.819Z,94.80
2018-03-21T04:35:43.137Z,94.90
2018-03-21T04:36:45.655Z,94.90
2018-03-21T04:37:48.175Z,94.90
2018-03-21T04:38:50.690Z,94.90
2018-03-21T04:39:53.213Z,94.90
2018-03-21T04:40:55.774Z,95.20
2018-03-21T04:41:58.297Z,95.00
2018-03-21T04:43:01.590Z,94.90
2018-03-21T04:44:04.889Z,95.00
2018-03-21T04:45:07.419Z,95.00
2018-03-21T04:46:09.979Z,95.10
2018-03-21T04:47:12.504Z,95.10
2018-03-21T04:48:15.030Z,94.80
2018-03-21T04:49:18.321Z,95.00
2018-03-21T04:50:21.622Z,95.10
2018-03-21T04:51:24.176Z,95.00
2018-03-21T04:52:26.699Z,95.20
2018-03-21T04:53:29.261Z,95.30
2018-03-21T04:54:31.790Z,95.40
2018-03-21T04:55:34.316Z,95.40
2018-03-21T04:56:36.834Z,95.50
2018-03-21T04:57:39.350Z,95.50
2018-03-21T04:58:41.902Z,95.40
2018-03-21T04:59:44.433Z,95.40
2018-03-21T05:00:46.984Z,95.30
2018-03-21T05:01:49.553Z,95.30
2018-03-21T05:02:52.078Z,95.40
2018-03-21T05:03:54.632Z,95.30
2018-03-21T05:04:57.155Z,95.40
2018-03-21T05:05:59.744Z,95.50
2018-03-21T05:07:02.258Z,95.20
2018-03-21T05:08:05.537Z,95.20
2018-03-21T05:09:08.826Z,95.50
2018-03-21T05:10:12.115Z,95.30
2018-03-21T05:11:15.428Z,95.20
2018-03-21T05:12:17.961Z,95.10
2018-03-21T05:13:21.277Z,94.90
2018-03-21T05:14:23.813Z,94.90
2018-03-21T05:15:27.101Z,95.00
2018-03-21T05:16:30.426Z,95.40
2018-03-21T05:17:32.945Z,95.40
2018-03-21T05:18:36.231Z,95.40
2018-03-21T05:19:39.530Z,95.70
2018-03-21T05:20:42.189Z,95.70
2018-03-21T05:21:45.513Z,95.70
2018-03-21T05:22:48.035Z,95.70
2018-03-21T05:23:51.318Z,95.80
2018-03-21T05:24:54.655Z,95.80
2018-03-21T05:25:57.161Z,95.80
2018-03-21T05:27:00.448Z,96.10
2018-03-21T05:28:03.739Z,96.00
2018-03-21T05:29:06.266Z,95.90
2018-03-21T05:30:08.826Z,95.80
2018-03-21T05:31:11.382Z,95.90
2018-03-21T05:32:13.919Z,95.90
2018-03-21T05:33:16.433Z,95.90
2018-03-21T05:34:18.964Z,95.80
2018-03-21T05:35:21.485Z,95.70
2018-03-21T05:36:24.821Z,95.50
2018-03-21T05:37:27.350Z,95.50
2018-03-21T05:38:30.640Z,95.70
2018-03-21T05:39:33.167Z,95.70
2018-03-21T05:40:35.688Z,95.80
2018-03-21T05:41:38.243Z,95.60
2018-03-21T05:42:40.796Z,95.80
2018-03-21T05:43:44.081Z,96.20
2018-03-21T05:44:47.377Z,96.10
2018-03-21T05:45:49.936Z,96.10
2018-03-21T05:46:53.221Z,96.10
2018-03-21T05:47:56.508Z,96.10
2018-03-21T05:48:59.924Z,96.10
2018-03-21T05:50:02.503Z,96.20
2018-03-21T05:51:05.025Z,96.20
2018-03-21T05:52:07.575Z,96.20
2018-03-21T05:53:10.865Z,96.60
2018-03-21T05:54:14.153Z,96.40
2018-03-21T05:55:17.474Z,96.50
2018-03-21T05:56:20.008Z,96.50
2018-03-21T05:57:22.534Z,96.60
2018-03-21T05:58:25.058Z,96.80
2018-03-21T05:59:27.608Z,96.90
2018-03-21T06:00:30.134Z,96.90
2018-03-21T06:01:32.658Z,96.90
2018-03-21T06:02:35.180Z,97.00
2018-03-21T06:03:37.698Z,97.10
2018-03-21T06:04:40.269Z,97.20
2018-03-21T06:05:42.789Z,97.30
2018-03-21T06:06:46.078Z,97.30
2018-03-21T06:07:49.366Z,97.30
2018-03-21T06:08:52.656Z,97.40
2018-03-21T06:09:55.214Z,97.30
2018-03-21T06:10:58.503Z,97.40
2018-03-21T06:12:01.801Z,97.30
2018-03-21T06:13:04.334Z,97.30
2018-03-21T06:14:07.634Z,97.30
2018-03-21T06:15:10.952Z,97.10
2018-03-21T06:16:13.490Z,97.10
2018-03-21T06:17:16.009Z,97.00
2018-03-21T06:18:18.523Z,97.00
2018-03-21T06:19:21.151Z,97.10
2018-03-21T06:20:24.466Z,97.00
2018-03-21T06:21:27.793Z,97.00
2018-03-21T06:22:30.355Z,97.00
2018-03-21T06:23:32.891Z,96.90
2018-03-21T06:24:36.175Z,97.00
2018-03-21T06:25:39.469Z,97.20
2018-03-21T06:26:42.007Z,97.20
2018-03-21T06:27:44.589Z,97.10
2018-03-21T06:28:47.868Z,97.20
2018-03-21T06:29:51.158Z,97.00
2018-03-21T06:30:54.441Z,97.10
2018-03-21T06:31:57.762Z,97.30
2018-03-21T06:33:00.285Z,97.30
2018-03-21T06:34:03.571Z,96.90
2018-03-21T06:35:06.871Z,95.70
2018-03-21T06:36:09.394Z,95.60
2018-03-21T06:37:11.956Z,93.80
2018-03-21T06:38:14.476Z,92.00
2018-03-21T06:39:16.985Z,90.30
2018-03-21T06:40:19.505Z,87.20
2018-03-21T06:41:22.021Z,84.20
2018-03-21T06:42:24.589Z,81.20
2018-03-21T06:43:27.118Z,78.20
2018-03-21T06:44:29.658Z,77.60
2018-03-21T06:45:32.217Z,77.30
2018-03-21T06:46:34.757Z,77.90
2018-03-21T06:47:37.280Z,78.70
2018-03-21T06:48:39.853Z,79.60
2018-03-21T06:49:42.370Z,80.90
2018-03-21T06:50:45.821Z,84.80
2018-03-21T06:51:48.374Z,84.10
2018-03-21T06:52:50.973Z,86.10
2018-03-21T06:53:53.534Z,88.00
2018-03-21T06:54:56.074Z,90.00
2018-03-21T06:55:58.610Z,90.70
2018-03-21T06:57:01.139Z,91.10
2018-03-21T06:58:03.672Z,91.70
2018-03-21T06:59:06.238Z,92.30
2018-03-21T07:00:08.776Z,92.80
2018-03-21T07:01:11.326Z,93.20
2018-03-21T07:02:14.627Z,93.40
2018-03-21T07:03:17.185Z,93.40
2018-03-21T07:04:20.472Z,92.90
2018-03-21T07:05:23.762Z,93.00
2018-03-21T07:06:26.306Z,93.00
2018-03-21T07:07:29.598Z,92.60
2018-03-21T07:08:32.920Z,92.10
2018-03-21T07:09:35.442Z,92.10
2018-03-21T07:10:38.778Z,90.70
2018-03-21T07:11:41.302Z,90.70
2018-03-21T07:12:44.588Z,89.90
2018-03-21T07:13:59.893Z,90.00
2018-03-21T07:15:14.251Z,90.00
2018-03-21T07:16:29.553Z,90.20
2018-03-21T07:17:32.857Z,89.70
2018-03-21T07:18:35.400Z,89.50
2018-03-21T07:19:38.693Z,88.30
2018-03-21T07:20:41.988Z,88.30
2018-03-21T07:21:44.654Z,88.20
2018-03-21T07:22:47.220Z,87.90
2018-03-21T07:23:50.504Z,87.80
2018-03-21T07:24:53.029Z,87.80
2018-03-21T07:25:55.547Z,87.30
2018-03-21T07:26:58.103Z,85.30
2018-03-21T07:28:00.630Z,84.00
2018-03-21T07:29:03.153Z,82.40
2018-03-21T07:30:05.670Z,80.90
2018-03-21T07:31:08.233Z,79.00
2018-03-21T07:32:10.744Z,77.70
2018-03-21T07:33:13.258Z,77.30
2018-03-21T07:34:15.781Z,76.50
2018-03-21T07:35:18.292Z,74.30
2018-03-21T07:36:20.836Z,73.20
2018-03-21T07:37:23.358Z,72.00
2018-03-21T07:38:26.644Z,70.20
2018-03-21T07:39:29.165Z,69.50
2018-03-21T07:40:31.745Z,69.60
2018-03-21T07:41:34.308Z,69.60
2018-03-21T07:42:36.825Z,69.30
2018-03-21T07:43:39.342Z,67.90
2018-03-21T07:44:41.887Z,67.10
2018-03-21T07:45:44.436Z,65.20
2018-03-21T07:46:46.978Z,64.20
2018-03-21T07:47:49.552Z,63.60
2018-03-21T07:48:52.279Z,62.10
2018-03-21T07:49:54.806Z,61.10
2018-03-21T07:50:57.328Z,60.10
2018-03-21T07:52:00.612Z,57.80
2018-03-21T07:53:03.957Z,57.80
2018-03-21T07:54:06.473Z,57.80
2018-03-21T07:55:09.762Z,59.40
2018-03-21T07:56:12.285Z,59.40
2018-03-21T07:57:14.794Z,61.70
2018-03-21T07:58:17.350Z,63.90
2018-03-21T07:59:20.648Z,69.10
2018-03-21T08:00:23.160Z,69.10
2018-03-21T08:01:25.706Z,72.20
2018-03-21T08:02:28.237Z,73.00
2018-03-21T08:03:31.527Z,77.30
2018-03-21T08:04:34.081Z,77.30
2018-03-21T08:05:37.396Z,80.30
2018-03-21T08:06:39.908Z,80.20
2018-03-21T08:07:42.440Z,82.30
2018-03-21T08:08:44.960Z,83.20
2018-03-21T08:09:48.276Z,85.20
2018-03-21T08:10:50.821Z,85.20
2018-03-21T08:11:54.105Z,86.10
2018-03-21T08:12:57.424Z,85.60
2018-03-21T08:13:59.937Z,85.70
2018-03-21T08:15:02.440Z,85.50
2018-03-21T08:16:05.007Z,85.70
2018-03-21T08:17:07.545Z,86.40
2018-03-21T08:18:10.828Z,87.40
2018-03-21T08:19:14.164Z,87.40
2018-03-21T08:20:16.698Z,87.30
2018-03-21T08:21:19.217Z,86.90
2018-03-21T08:22:21.765Z,86.90
2018-03-21T08:23:24.284Z,86.50
2018-03-21T08:24:27.562Z,85.90
2018-03-21T08:25:30.844Z,87.30
2018-03-21T08:26:34.206Z,86.30
2018-03-21T08:27:36.721Z,86.30
2018-03-21T08:28:39.238Z,86.20
2018-03-21T08:29:41.754Z,87.00
2018-03-21T08:30:44.308Z,87.50
2018-03-21T08:31:46.828Z,87.50
2018-03-21T08:33:58.283Z,87.70
2018-03-21T08:35:00.844Z,86.40
2018-03-21T08:36:03.374Z,85.70
2018-03-21T08:37:06.676Z,86.10
2018-03-21T08:38:09.233Z,86.10
2018-03-21T08:39:11.762Z,85.80
2018-03-21T08:40:14.282Z,86.10
2018-03-21T08:41:16.841Z,85.90
2018-03-21T08:42:19.379Z,86.40
2018-03-21T08:43:22.694Z,85.10
2018-03-21T08:44:25.263Z,85.10
2018-03-21T08:45:27.799Z,83.50
2018-03-21T08:46:31.080Z,84.60
2018-03-21T08:47:33.597Z,85.10
2018-03-21T08:48:36.113Z,84.20
2018-03-21T08:49:38.696Z,83.80
2018-03-21T08:50:41.965Z,83.50
2018-03-21T08:51:45.274Z,82.10
2018-03-21T08:52:47.834Z,82.10
2018-03-21T08:53:51.165Z,83.80
2018-03-21T08:54:53.645Z,83.90
2018-03-21T08:55:56.186Z,81.80
2018-03-21T08:56:58.733Z,81.00
2018-03-21T08:58:01.255Z,79.90
2018-03-21T08:59:03.783Z,77.80
2018-03-21T09:00:06.325Z,74.30
2018-03-21T09:01:08.841Z,69.70
2018-03-21T09:02:11.406Z,65.20
2018-03-21T09:03:13.918Z,62.30
2018-03-21T09:04:16.448Z,58.40
2018-03-21T09:05:18.970Z,55.90
2018-03-21T09:06:21.488Z,54.20
2018-03-21T09:07:24.045Z,51.50
2018-03-21T09:08:26.582Z,47.40
2018-03-21T09:09:29.113Z,47.30
2018-03-21T09:10:31.636Z,46.20
2018-03-21T09:11:34.144Z,44.30
2018-03-21T09:12:36.768Z,43.00
2018-03-21T09:13:39.285Z,42.30
2018-03-21T09:14:41.850Z,43.20
2018-03-21T09:15:44.385Z,41.20
2018-03-21T09:16:46.905Z,39.50
2018-03-21T09:17:49.429Z,40.10
2018-03-21T09:18:52.772Z,38.50
2018-03-21T09:19:55.301Z,38.50
2018-03-21T09:20:57.841Z,39.30
2018-03-21T09:22:01.134Z,38.40
2018-03-21T09:23:04.486Z,38.30
2018-03-21T09:24:07.016Z,38.30
2018-03-21T09:25:09.531Z,38.20
2018-03-21T09:26:12.089Z,38.90
2018-03-21T09:27:14.606Z,39.90
2018-03-21T09:28:17.126Z,38.70
2018-03-21T09:29:19.646Z,38.50
2018-03-21T09:30:22.168Z,38.40
2018-03-21T09:31:25.492Z,35.60
2018-03-21T09:32:28.014Z,35.70
2018-03-21T09:33:31.298Z,36.30
2018-03-21T09:34:34.597Z,34.80
2018-03-21T09:35:37.881Z,34.20
2018-03-21T09:36:41.199Z,34.40
2018-03-21T09:37:43.721Z,34.40
2018-03-21T09:38:47.008Z,34.70
2018-03-21T09:39:50.333Z,34.90
2018-03-21T09:40:52.857Z,35.00
2018-03-21T09:41:56.147Z,36.30
2018-03-21T09:42:59.626Z,36.50
2018-03-21T09:44:02.941Z,37.10
2018-03-21T09:45:05.472Z,37.20
2018-03-21T09:46:08.765Z,38.60
2018-03-21T09:47:12.054Z,37.90
2018-03-21T09:48:15.345Z,37.10
2018-03-21T09:49:18.671Z,36.70
2018-03-21T09:50:21.199Z,36.70
2018-03-21T09:51:23.721Z,35.50
2018-03-21T09:52:26.246Z,36.70
2018-03-21T09:53:28.758Z,37.70
2018-03-21T09:54:37.072Z,38.00
2018-03-21T09:55:39.597Z,36.90
2018-03-21T09:56:42.118Z,36.90
2018-03-21T09:57:45.400Z,36.20
2018-03-21T09:58:48.688Z,36.50
2018-03-21T09:59:52.016Z,35.60
2018-03-21T10:00:54.543Z,35.60
2018-03-21T10:01:57.073Z,36.00
2018-03-21T10:02:59.612Z,37.70
2018-03-21T10:04:02.129Z,38.60
2018-03-21T10:05:05.437Z,41.10
2018-03-21T10:06:07.951Z,41.10
2018-03-21T10:07:10.508Z,41.20
2018-03-21T10:08:13.020Z,41.60
2018-03-21T10:09:15.536Z,42.30
2018-03-21T10:10:18.066Z,42.80
2018-03-21T10:11:20.609Z,42.90
2018-03-21T10:12:23.124Z,41.20
2018-03-21T10:13:25.682Z,42.10
2018-03-21T10:14:28.208Z,42.10
2018-03-21T10:15:31.489Z,40.30
2018-03-21T10:16:34.813Z,38.80
2018-03-21T10:17:37.383Z,38.80
2018-03-21T10:18:39.918Z,38.70
2018-03-21T10:19:43.202Z,38.00
2018-03-21T10:20:46.483Z,38.90
2018-03-21T10:21:49.783Z,39.20
2018-03-21T10:22:52.331Z,39.20
2018-03-21T10:23:55.618Z,39.80
2018-03-21T10:24:58.900Z,39.60
2018-03-21T10:26:02.189Z,39.10
2018-03-21T10:27:04.767Z,39.10
2018-03-21T10:28:07.322Z,38.20
2018-03-21T10:29:09.837Z,37.50
2018-03-21T10:30:12.361Z,37.20
2018-03-21T10:31:14.906Z,36.10
2018-03-21T10:32:18.229Z,34.30
2018-03-21T10:33:20.753Z,34.30
2018-03-21T10:34:24.070Z,32.60
2018-03-21T10:35:26.584Z,32.60
2018-03-21T10:36:29.099Z,32.20
2018-03-21T10:37:31.618Z,32.00
2018-03-21T10:38:34.139Z,32.10
2018-03-21T10:39:36.688Z,33.30
2018-03-21T10:40:39.201Z,32.90
2018-03-21T10:41:42.484Z,33.30
2018-03-21T10:42:45.111Z,33.40
2018-03-21T10:43:48.374Z,31.40
2018-03-21T10:44:51.759Z,32.20
2018-03-21T10:45:54.259Z,32.20
2018-03-21T10:46:56.800Z,33.50
2018-03-21T10:47:59.329Z,33.80
2018-03-21T10:49:01.841Z,34.20
2018-03-21T10:50:04.402Z,32.70
2018-03-21T10:51:06.926Z,32.60
2018-03-21T10:52:09.445Z,32.30
2018-03-21T10:53:11.961Z,32.40
2018-03-21T10:54:14.513Z,32.90
2018-03-21T10:55:17.080Z,33.90
2018-03-21T10:56:19.601Z,31.60
2018-03-21T10:57:22.125Z,31.90
2018-03-21T10:58:24.656Z,33.80
2018-03-21T10:59:27.172Z,35.00
2018-03-21T11:00:29.733Z,34.60
2018-03-21T11:01:39.998Z,34.90
2018-03-21T11:02:49.132Z,34.80
2018-03-21T11:03:56.506Z,34.80
2018-03-21T11:04:59.034Z,35.00
2018-03-21T11:06:01.596Z,35.00
2018-03-21T11:07:04.394Z,35.50
2018-03-21T11:08:07.737Z,36.10
2018-03-21T11:09:10.227Z,36.10
2018-03-21T11:10:12.751Z,36.50
2018-03-21T11:11:15.314Z,37.50
2018-03-21T11:12:17.833Z,36.50
2018-03-21T11:13:20.359Z,36.30
2018-03-21T11:14:22.877Z,38.70
2018-03-21T11:15:26.168Z,39.40
2018-03-21T11:16:29.499Z,41.60
2018-03-21T11:17:32.009Z,41.50
2018-03-21T11:18:34.530Z,42.70
2018-03-21T11:19:37.047Z,41.50
2018-03-21T11:20:40.372Z,41.10
2018-03-21T11:21:42.887Z,41.10
2018-03-21T11:22:46.177Z,43.30
2018-03-21T11:23:49.452Z,43.60
2018-03-21T11:24:51.996Z,43.60
2018-03-21T11:25:54.549Z,45.40
2018-03-21T11:26:57.067Z,46.40
2018-03-21T11:28:00.337Z,45.90
2018-03-21T11:29:03.614Z,45.30
2018-03-21T11:30:06.133Z,45.70
2018-03-21T11:31:08.676Z,45.20
2018-03-21T11:32:11.184Z,45.00
2018-03-21T11:33:13.689Z,44.20
2018-03-21T11:34:16.978Z,44.80
2018-03-21T11:35:19.509Z,44.70
2018-03-21T11:36:22.070Z,44.00
2018-03-21T11:37:24.599Z,43.10
2018-03-21T11:38:27.110Z,42.10
2018-03-21T11:39:29.631Z,42.40
2018-03-21T11:40:32.150Z,42.70
2018-03-21T11:41:34.715Z,41.50
2018-03-21T11:42:37.229Z,41.40
2018-03-21T11:43:39.755Z,40.10
2018-03-21T11:44:42.288Z,39.40
2018-03-21T11:45:44.805Z,39.90
2018-03-21T11:46:48.121Z,40.50
2018-03-21T11:47:50.661Z,40.60
2018-03-21T11:48:53.221Z,41.90
2018-03-21T11:49:56.499Z,40.70
2018-03-21T11:50:59.784Z,39.20
2018-03-21T11:52:03.070Z,39.10
2018-03-21T11:53:06.371Z,40.50
2018-03-21T11:54:08.929Z,40.40
2018-03-21T11:55:11.504Z,39.50
2018-03-21T11:56:14.025Z,40.30
2018-03-21T11:57:16.550Z,42.50
2018-03-21T11:58:19.065Z,42.80
2018-03-21T11:59:21.609Z,42.00
2018-03-21T12:00:24.137Z,41.20
2018-03-21T12:01:26.655Z,41.60
2018-03-21T12:02:29.210Z,40.80
2018-03-21T12:03:31.739Z,41.10
2018-03-21T12:04:34.265Z,41.30
2018-03-21T12:05:36.824Z,40.60
2018-03-21T12:06:39.340Z,40.30
2018-03-21T12:07:41.861Z,40.90
2018-03-21T12:08:44.432Z,40.80
2018-03-21T12:09:46.925Z,41.30
2018-03-21T12:10:49.474Z,40.40
2018-03-21T12:11:52.766Z,37.50
2018-03-21T12:12:56.048Z,38.00
2018-03-21T12:13:59.336Z,37.60
2018-03-21T12:15:01.868Z,37.50
2018-03-21T12:16:04.420Z,36.30
2018-03-21T12:17:06.950Z,34.70
2018-03-21T12:18:09.474Z,35.30
2018-03-21T12:19:11.992Z,34.80
2018-03-21T12:20:14.512Z,34.40
2018-03-21T12:21:17.841Z,36.90
2018-03-21T12:22:20.353Z,36.80
2018-03-21T12:23:22.902Z,35.90
2018-03-21T12:24:25.424Z,35.70
2018-03-21T12:25:28.270Z,35.80
2018-03-21T12:26:31.590Z,34.90
2018-03-21T12:27:34.128Z,34.90
2018-03-21T12:28:37.448Z,35.80
2018-03-21T12:29:39.974Z,35.80
2018-03-21T12:30:43.274Z,34.90
2018-03-21T12:31:45.807Z,34.90
2018-03-21T12:32:48.329Z,35.70
2018-03-21T12:33:50.899Z,34.90
2018-03-21T12:34:53.592Z,33.50
2018-03-21T12:35:56.122Z,33.20
2018-03-21T12:36:58.647Z,33.50
2018-03-21T12:38:01.170Z,35.20
2018-03-21T12:39:03.734Z,37.20
2018-03-21T12:40:06.260Z,36.00
2018-03-21T12:41:09.670Z,34.00
2018-03-21T12:42:12.193Z,34.00
2018-03-21T12:43:14.784Z,33.30
2018-03-21T12:44:18.074Z,33.00
2018-03-21T12:45:21.364Z,31.60
2018-03-21T12:46:23.914Z,31.70
2018-03-21T12:47:27.201Z,31.10
2018-03-21T12:48:29.729Z,31.10
2018-03-21T12:49:32.275Z,30.70
2018-03-21T12:50:34.799Z,30.90
2018-03-21T12:51:38.123Z,32.10
2018-03-21T12:52:40.653Z,32.10
2018-03-21T12:53:43.956Z,32.30
2018-03-21T12:54:46.478Z,32.40
2018-03-21T12:55:49.100Z,32.30
2018-03-21T12:56:51.583Z,32.10
2018-03-21T12:57:54.117Z,32.40
2018-03-21T12:58:56.636Z,30.20
2018-03-21T12:59:59.198Z,30.90
2018-03-21T13:01:01.723Z,31.00
2018-03-21T13:02:04.246Z,32.50
2018-03-21T13:03:06.760Z,32.10
2018-03-21T13:04:09.288Z,32.00
2018-03-21T13:05:12.618Z,31.40
2018-03-21T13:06:15.140Z,31.40
2018-03-21T13:07:18.430Z,34.20
2018-03-21T13:08:20.966Z,34.10
2018-03-21T13:09:23.494Z,33.00
2018-03-21T13:10:26.051Z,32.90
2018-03-21T13:11:28.573Z,33.80
2018-03-21T13:12:31.097Z,32.40
2018-03-21T13:13:33.645Z,32.60
2018-03-21T13:14:36.190Z,33.60
2018-03-21T13:15:39.517Z,34.50
2018-03-21T13:16:42.053Z,34.40
2018-03-21T13:17:44.573Z,32.60
2018-03-21T13:18:47.103Z,32.70
2018-03-21T13:19:49.618Z,31.70
2018-03-21T13:20:52.203Z,32.50
2018-03-21T13:21:55.512Z,31.40
2018-03-21T13:22:58.086Z,31.30
2018-03-21T13:24:01.345Z,30.40
2018-03-21T13:25:03.895Z,30.40
2018-03-21T13:26:07.261Z,29.60
2018-03-21T13:27:09.753Z,29.60
2018-03-21T13:28:12.312Z,30.80
2018-03-21T13:29:15.613Z,33.70
2018-03-21T13:30:18.138Z,33.60
2018-03-21T13:31:20.688Z,33.20
2018-03-21T13:32:23.212Z,32.90
2018-03-21T13:33:25.743Z,32.20